createdAt,value
2023-03-21T00:01:15.939Z,6.43
2023-03-21T00:03:51.658Z,7.93
2023-03-21T00:06:26.133Z,6.77
2023-03-21T00:08:59.814Z,6.80
2023-03-21T00:11:33.281Z,6.43
2023-03-21T00:14:09.104Z,8.77
2023-03-21T00:16:46.129Z,7.07
2023-03-21T00:19:20.893Z,7.93
2023-03-21T00:22:06.970Z,7.57
2023-03-21T00:24:42.253Z,5.13
2023-03-21T00:27:42.630Z,6.23
2023-03-21T00:30:13.739Z,5.70
2023-03-21T00:32:56.560Z,6.37
2023-03-21T00:38:26.235Z,5.53
2023-03-21T00:41:04.711Z,8.83
2023-03-21T00:43:41.623Z,7.63
2023-03-21T00:46:15.495Z,7.67
2023-03-21T00:48:50.875Z,7.03
2023-03-21T00:51:27.448Z,6.47
2023-03-21T00:54:01.067Z,7.57
2023-03-21T00:56:34.679Z,7.30
2023-03-21T00:59:08.249Z,5.60
2023-03-21T01:01:41.928Z,8.10
2023-03-21T01:04:19.943Z,5.77
2023-03-21T01:06:54.272Z,7.53
2023-03-21T01:09:28.159Z,6.07
2023-03-21T01:12:02.131Z,5.53
2023-03-21T01:14:35.657Z,7.47
2023-03-21T01:17:09.813Z,7.37
2023-03-21T01:19:51.920Z,6.23
2023-03-21T01:22:25.915Z,7.90
2023-03-21T01:25:09.055Z,6.40
2023-03-21T01:27:54.761Z,7.83
2023-03-21T01:30:31.207Z,6.17
2023-03-21T01:33:05.506Z,8.33
2023-03-21T01:35:49.120Z,8.27
2023-03-21T01:38:26.674Z,8.27
2023-03-21T01:41:08.646Z,8.07
2023-03-21T01:43:50.278Z,8.47
2023-03-21T01:46:51.590Z,7.77
2023-03-21T01:49:39.032Z,7.53
2023-03-21T01:52:33.569Z,9.33
2023-03-21T01:55:16.191Z,8.07
2023-03-21T01:58:05.467Z,9.43
2023-03-21T02:00:52.755Z,8.60
2023-03-21T02:03:36.167Z,7.17
2023-03-21T02:06:17.084Z,8.50
2023-03-21T02:08:54.604Z,8.13
2023-03-21T02:11:30.914Z,9.23
2023-03-21T02:14:06.992Z,8.40
2023-03-21T02:16:55.078Z,8.93
2023-03-21T02:20:28.638Z,8.40
2023-03-21T02:23:58.299Z,7.27
2023-03-21T02:27:08.125Z,7.80
2023-03-21T02:30:49.229Z,8.13
2023-03-21T02:34:09.617Z,7.47
2023-03-21T02:37:08.940Z,8.23
2023-03-21T02:40:02.215Z,8.17
2023-03-21T02:42:59.485Z,8.03
2023-03-21T02:45:45.137Z,6.87
2023-03-21T02:48:33.292Z,7.77
2023-03-21T02:51:19.350Z,9.53
2023-03-21T02:54:26.435Z,10.67
2023-03-21T02:57:00.586Z,9.40
2023-03-21T02:59:44.510Z,10.13
2023-03-21T03:02:28.554Z,9.13
2023-03-21T03:05:06.458Z,7.53
2023-03-21T03:08:03.399Z,7.20
2023-03-21T03:11:02.563Z,11.10
2023-03-21T03:14:25.203Z,9.77
2023-03-21T03:17:18.791Z,8.47
2023-03-21T03:20:17.470Z,8.40
2023-03-21T03:23:04.880Z,10.37
2023-03-21T03:25:49.130Z,6.97
2023-03-21T03:28:33.310Z,7.37
2023-03-21T03:31:12.569Z,9.77
2023-03-21T03:33:53.255Z,6.10
2023-03-21T03:36:37.047Z,7.47
2023-03-21T03:39:13.500Z,9.40
2023-03-21T03:42:10.076Z,8.83
2023-03-21T03:44:48.796Z,6.77
2023-03-21T03:47:36.224Z,8.40
2023-03-21T03:50:21.084Z,8.10
2023-03-21T03:53:04.802Z,7.60
2023-03-21T03:55:41.841Z,9.77
2023-03-21T03:58:24.832Z,7.73
2023-03-21T04:01:01.894Z,7.43
2023-03-21T04:03:48.467Z,8.97
2023-03-21T04:06:24.446Z,10.13
2023-03-21T04:09:00.127Z,9.50
2023-03-21T04:11:35.416Z,10.67
2023-03-21T04:14:10.865Z,7.30
2023-03-21T04:16:44.991Z,8.70
2023-03-21T04:19:18.515Z,7.87
2023-03-21T04:21:51.889Z,8.90
2023-03-21T04:24:26.135Z,6.73
2023-03-21T04:27:00.639Z,9.33
2023-03-21T04:29:36.169Z,7.47
2023-03-21T04:32:20.118Z,10.17
2023-03-21T04:34:55.664Z,9.40
2023-03-21T04:37:29.594Z,7.77
2023-03-21T04:40:07.359Z,9.57
2023-03-21T04:42:41.459Z,9.33
2023-03-21T04:45:17.636Z,7.63
2023-03-21T04:47:51.226Z,8.00
2023-03-21T04:50:25.362Z,10.03
2023-03-21T04:53:00.055Z,10.57
2023-03-21T04:55:33.594Z,8.23
2023-03-21T04:58:07.633Z,10.10
2023-03-21T05:00:42.989Z,7.70
2023-03-21T05:03:19.886Z,9.53
2023-03-21T05:05:54.327Z,8.67
2023-03-21T05:08:28.873Z,7.90
2023-03-21T05:11:02.535Z,9.30
2023-03-21T05:13:36.471Z,7.23
2023-03-21T05:16:12.866Z,6.97
2023-03-21T05:18:50.953Z,6.97
2023-03-21T05:21:25.438Z,8.77
2023-03-21T05:24:04.259Z,8.13
2023-03-21T05:26:38.097Z,9.37
2023-03-21T05:29:12.202Z,7.37
2023-03-21T05:31:47.529Z,8.53
2023-03-21T05:34:21.686Z,8.43
2023-03-21T05:36:55.636Z,6.50
2023-03-21T05:39:29.424Z,6.53
2023-03-21T05:42:03.781Z,7.77
2023-03-21T05:44:40.500Z,6.47
2023-03-21T05:47:16.700Z,7.43
2023-03-21T05:49:53.411Z,6.90
2023-03-21T05:52:28.761Z,7.00
2023-03-21T05:55:02.959Z,8.73
2023-03-21T05:57:39.438Z,7.73
2023-03-21T06:00:18.873Z,6.60
2023-03-21T06:02:53.781Z,7.00
2023-03-21T06:05:28.071Z,6.10
2023-03-21T06:08:01.808Z,6.57
2023-03-21T06:10:35.724Z,8.40
2023-03-21T06:13:10.201Z,6.93
2023-03-21T06:15:44.265Z,6.97
2023-03-21T06:18:19.248Z,7.67
2023-03-21T06:20:54.801Z,9.60
2023-03-21T06:23:28.771Z,6.80
2023-03-21T06:26:02.202Z,7.10
2023-03-21T06:28:35.900Z,8.00
2023-03-21T06:31:10.445Z,7.87
2023-03-21T06:33:45.975Z,7.37
2023-03-21T06:36:21.016Z,7.67
2023-03-21T06:38:56.036Z,7.40
2023-03-21T06:41:30.116Z,6.43
2023-03-21T06:44:03.931Z,7.63
2023-03-21T06:46:37.931Z,7.30
2023-03-21T06:49:13.229Z,7.57
2023-03-21T06:51:47.005Z,5.63
2023-03-21T06:54:21.763Z,6.77
2023-03-21T06:56:58.719Z,6.67
2023-03-21T06:59:32.482Z,7.20
2023-03-21T07:02:07.341Z,7.63
2023-03-21T07:04:42.965Z,6.57
2023-03-21T07:07:17.372Z,5.10
2023-03-21T07:09:51.884Z,5.00
2023-03-21T07:12:26.736Z,7.77
2023-03-21T07:15:00.653Z,5.67
2023-03-21T07:17:34.448Z,7.30
2023-03-21T07:20:13.443Z,6.10
2023-03-21T07:22:47.473Z,7.07
2023-03-21T07:25:21.100Z,6.23
2023-03-21T07:27:55.880Z,5.87
2023-03-21T07:30:30.085Z,6.40
2023-03-21T07:33:04.207Z,7.53
2023-03-21T07:35:40.083Z,6.20
2023-03-21T07:38:17.142Z,6.70
2023-03-21T07:40:51.192Z,6.87
2023-03-21T07:43:26.694Z,5.73
2023-03-21T07:46:01.213Z,6.77
2023-03-21T07:48:35.350Z,6.07
2023-03-21T07:51:11.054Z,7.70
2023-03-21T07:53:48.768Z,5.67
2023-03-21T07:56:24.983Z,6.77
2023-03-21T07:58:59.542Z,5.90
2023-03-21T08:01:33.988Z,6.67
2023-03-21T08:04:08.444Z,6.10
2023-03-21T08:06:43.824Z,7.77
2023-03-21T08:09:17.808Z,8.37
2023-03-21T08:11:51.496Z,5.93
2023-03-21T08:14:25.537Z,7.20
2023-03-21T08:16:59.912Z,8.80
2023-03-21T08:19:34.276Z,6.20
2023-03-21T08:22:10.934Z,6.37
2023-03-21T08:24:45.109Z,7.10
2023-03-21T08:27:19.068Z,4.97
2023-03-21T08:29:53.073Z,5.73
2023-03-21T08:32:29.705Z,6.23
2023-03-21T08:35:05.002Z,6.90
2023-03-21T08:37:41.906Z,5.80
2023-03-21T08:40:21.830Z,6.63
2023-03-21T08:42:56.288Z,7.57
2023-03-21T08:45:30.612Z,5.87
2023-03-21T08:48:04.465Z,6.43
2023-03-21T08:50:38.068Z,7.33
2023-03-21T08:53:14.488Z,8.13
2023-03-21T08:55:48.376Z,7.67
2023-03-21T08:58:22.656Z,6.33
2023-03-21T09:00:56.607Z,8.03
2023-03-21T09:03:30.464Z,6.93
2023-03-21T09:06:03.944Z,7.17
2023-03-21T09:08:41.820Z,6.77
2023-03-21T09:11:15.738Z,8.47
2023-03-21T09:13:49.686Z,9.30
2023-03-21T09:16:25.475Z,8.87
2023-03-21T09:18:59.747Z,6.83
2023-03-21T09:21:33.736Z,9.70
2023-03-21T09:24:12.713Z,7.23
2023-03-21T09:26:46.642Z,5.93
2023-03-21T09:29:23.638Z,5.37
2023-03-21T09:31:58.017Z,6.60
2023-03-21T09:34:32.153Z,5.67
2023-03-21T09:37:10.239Z,6.60
2023-03-21T09:39:45.472Z,6.03
2023-03-21T09:42:38.514Z,5.47
2023-03-21T09:45:35.750Z,5.27
2023-03-21T09:48:54.248Z,6.30
2023-03-21T09:51:49.399Z,6.73
2023-03-21T09:54:43.520Z,4.50
2023-03-21T09:57:37.837Z,8.20
2023-03-21T10:00:32.988Z,6.40
2023-03-21T10:03:28.697Z,4.93
2023-03-21T10:06:15.954Z,4.97
2023-03-21T10:09:27.783Z,6.10
2023-03-21T10:12:16.267Z,4.57
2023-03-21T10:15:29.708Z,5.63
2023-03-21T10:18:23.602Z,4.20
2023-03-21T10:22:00.174Z,3.87
2023-03-21T10:24:54.027Z,5.17
2023-03-21T10:27:45.259Z,3.87
2023-03-21T10:30:43.397Z,3.53
2023-03-21T10:33:27.292Z,4.83
2023-03-21T10:36:08.789Z,4.50
2023-03-21T10:39:06.309Z,5.07
2023-03-21T10:41:58.273Z,3.70
2023-03-21T10:44:37.771Z,4.10
2023-03-21T10:47:23.889Z,6.13
2023-03-21T10:50:07.782Z,3.73
2023-03-21T10:52:53.129Z,5.40
2023-03-21T10:55:32.492Z,4.93
2023-03-21T10:58:11.081Z,3.53
2023-03-21T11:01:17.521Z,6.37
2023-03-21T11:04:27.945Z,5.60
2023-03-21T11:07:20.537Z,5.33
2023-03-21T11:10:28.575Z,4.40
2023-03-21T11:13:30.160Z,4.30
2023-03-21T11:16:33.937Z,6.07
2023-03-21T11:19:35.434Z,5.90
2023-03-21T11:22:15.903Z,3.23
2023-03-21T11:25:04.383Z,5.60
2023-03-21T11:27:55.820Z,4.23
2023-03-21T11:30:54.610Z,3.03
2023-03-21T11:33:56.013Z,4.60
2023-03-21T11:37:07.332Z,5.97
2023-03-21T11:40:26.386Z,2.67
2023-03-21T11:43:28.728Z,4.53
2023-03-21T11:46:28.367Z,3.83
2023-03-21T11:49:26.843Z,4.00
2023-03-21T11:52:37.909Z,3.67
2023-03-21T11:55:41.632Z,3.00
2023-03-21T11:58:47.214Z,4.40
2023-03-21T12:01:35.329Z,3.07
2023-03-21T12:04:53.725Z,3.33
2023-03-21T12:07:54.180Z,3.17
2023-03-21T12:10:52.797Z,3.47
2023-03-21T12:13:59.039Z,4.10
2023-03-21T12:17:18.351Z,4.40
2023-03-21T12:20:43.944Z,2.80
2023-03-21T12:24:13.905Z,5.27
2023-03-21T12:27:10.396Z,2.83
2023-03-21T12:30:17.368Z,2.53
2023-03-21T12:33:24.671Z,3.07
2023-03-21T12:36:30.051Z,3.00
2023-03-21T12:39:22.665Z,4.03
2023-03-21T12:42:15.048Z,3.60
2023-03-21T12:44:57.225Z,2.27
2023-03-21T12:47:36.951Z,4.90
2023-03-21T12:50:20.903Z,2.33
2023-03-21T12:53:00.547Z,2.90
2023-03-21T12:55:37.247Z,4.70
2023-03-21T12:58:19.306Z,3.23
2023-03-21T13:01:03.243Z,5.80
2023-03-21T13:03:44.134Z,3.70
2023-03-21T13:06:22.027Z,3.37
2023-03-21T13:09:05.261Z,6.90
2023-03-21T13:11:41.761Z,2.60
2023-03-21T13:14:23.105Z,2.70
2023-03-21T13:17:02.325Z,2.53
2023-03-21T13:19:48.440Z,3.33
2023-03-21T13:22:29.115Z,4.40
2023-03-21T13:25:08.690Z,2.83
2023-03-21T13:27:47.369Z,3.17
2023-03-21T13:30:24.099Z,2.70
2023-03-21T13:33:08.703Z,3.07
2023-03-21T13:35:45.590Z,4.60
2023-03-21T13:38:24.253Z,4.13
2023-03-21T13:41:02.132Z,2.60
2023-03-21T13:43:47.075Z,4.90
2023-03-21T13:46:52.549Z,3.70
2023-03-21T13:49:43.848Z,2.63
2023-03-21T13:52:29.531Z,4.57
2023-03-21T13:55:05.637Z,2.50
2023-03-21T13:57:40.841Z,2.63
2023-03-21T14:00:25.733Z,3.60
2023-03-21T14:03:04.049Z,3.27
2023-03-21T14:05:39.194Z,4.17
2023-03-21T14:08:37.199Z,4.53
2023-03-21T14:11:17.855Z,3.13
2023-03-21T14:13:54.568Z,4.27
2023-03-21T14:16:30.601Z,2.97
2023-03-21T14:19:07.240Z,4.20
2023-03-21T14:21:51.630Z,2.20
2023-03-21T14:24:26.119Z,2.70
2023-03-21T14:27:02.102Z,3.87
2023-03-21T14:29:37.120Z,3.83
2023-03-21T14:32:24.629Z,3.00
2023-03-21T14:35:02.233Z,2.03
2023-03-21T14:37:50.577Z,2.53
2023-03-21T14:40:29.612Z,4.47
2023-03-21T14:43:08.272Z,2.77
2023-03-21T14:45:42.843Z,4.33
2023-03-21T14:48:19.167Z,2.50
2023-03-21T14:50:56.523Z,2.80
2023-03-21T14:53:34.169Z,2.53
2023-03-21T14:56:16.129Z,2.80
2023-03-21T14:58:51.049Z,4.93
2023-03-21T15:01:32.373Z,2.37
2023-03-21T15:04:09.591Z,4.60
2023-03-21T15:06:56.634Z,3.50
2023-03-21T15:09:34.149Z,2.40
2023-03-21T15:12:11.172Z,2.23
2023-03-21T15:14:45.191Z,2.37
2023-03-21T15:17:19.415Z,3.37
2023-03-21T15:19:55.069Z,3.97
2023-03-21T15:22:36.738Z,2.90
2023-03-21T15:25:22.449Z,2.90
2023-03-21T15:27:57.253Z,3.40
2023-03-21T15:30:38.036Z,2.53
2023-03-21T15:33:15.103Z,2.67
2023-03-21T15:35:55.809Z,3.23
2023-03-21T15:38:34.451Z,3.20
2023-03-21T15:41:29.020Z,3.73
2023-03-21T15:44:15.072Z,3.67
2023-03-21T15:46:51.249Z,2.77
2023-03-21T15:49:31.187Z,3.37
2023-03-21T15:52:14.695Z,3.63
2023-03-21T15:55:01.781Z,2.40
2023-03-21T15:57:39.993Z,2.30
2023-03-21T16:00:25.881Z,3.40
2023-03-21T16:03:08.022Z,2.13
2023-03-21T16:05:41.952Z,2.73
2023-03-21T16:08:27.735Z,4.23
2023-03-21T16:11:10.386Z,2.90
2023-03-21T16:13:44.457Z,2.83
2023-03-21T16:16:22.014Z,3.37
2023-03-21T16:18:57.865Z,1.77
2023-03-21T16:21:34.627Z,2.37
2023-03-21T16:24:11.695Z,3.23
2023-03-21T16:26:51.121Z,3.03
2023-03-21T16:29:26.015Z,2.60
2023-03-21T16:32:00.901Z,2.47
2023-03-21T16:34:34.411Z,3.30
2023-03-21T16:37:07.840Z,2.77
2023-03-21T16:39:44.493Z,4.20
2023-03-21T16:42:17.944Z,4.07
2023-03-21T16:44:51.891Z,3.10
2023-03-21T16:47:26.874Z,3.13
2023-03-21T16:50:00.649Z,2.43
2023-03-21T16:52:34.099Z,3.10
2023-03-21T16:55:09.736Z,4.23
2023-03-21T16:57:44.538Z,3.00
2023-03-21T17:00:23.643Z,5.17
2023-03-21T17:03:02.438Z,2.77
2023-03-21T17:05:36.172Z,2.33
2023-03-21T17:08:16.083Z,3.40
2023-03-21T17:10:52.650Z,3.03
2023-03-21T17:13:26.918Z,3.57
2023-03-21T17:16:00.646Z,3.47
2023-03-21T17:18:34.549Z,2.90
2023-03-21T17:21:15.175Z,4.00
2023-03-21T17:23:50.340Z,2.07
2023-03-21T17:26:28.710Z,4.00
2023-03-21T17:29:02.760Z,4.07
2023-03-21T17:31:39.224Z,2.80
2023-03-21T17:34:13.033Z,3.57
2023-03-21T17:36:49.419Z,4.77
2023-03-21T17:39:26.788Z,3.50
2023-03-21T17:42:01.967Z,3.90
2023-03-21T17:44:35.662Z,3.27
2023-03-21T17:47:11.720Z,4.50
2023-03-21T17:49:46.661Z,3.40
2023-03-21T17:52:20.057Z,5.27
2023-03-21T17:54:58.626Z,4.27
2023-03-21T17:57:33.491Z,3.10
2023-03-21T18:00:12.914Z,4.63
2023-03-21T18:02:48.025Z,3.60
2023-03-21T18:05:23.290Z,3.57
2023-03-21T18:08:13.044Z,3.27
2023-03-21T18:10:47.062Z,3.30
2023-03-21T18:13:22.762Z,3.43
2023-03-21T18:15:56.980Z,3.40
2023-03-21T18:18:30.937Z,3.23
2023-03-21T18:21:05.947Z,3.20
2023-03-21T18:23:39.915Z,3.00
2023-03-21T18:26:19.660Z,4.83
2023-03-21T18:29:53.523Z,5.80
2023-03-21T18:32:05.189Z,3.23
2023-03-21T18:34:41.712Z,2.97
2023-03-21T18:37:16.284Z,4.33
2023-03-21T18:39:50.271Z,2.77
2023-03-21T18:42:24.558Z,5.80
2023-03-21T18:45:00.233Z,2.73
2023-03-21T18:47:33.931Z,3.67
2023-03-21T18:50:14.608Z,4.13
2023-03-21T18:52:48.784Z,5.23
2023-03-21T18:55:39.294Z,2.90
2023-03-21T18:58:18.942Z,2.93
2023-03-21T19:00:54.955Z,2.77
2023-03-21T19:03:36.703Z,3.43
2023-03-21T19:06:11.606Z,4.37
2023-03-21T19:08:56.223Z,3.47
2023-03-21T19:11:32.269Z,3.47
2023-03-21T19:14:07.989Z,4.00
2023-03-21T19:17:34.501Z,4.70
2023-03-21T19:19:37.407Z,4.07
2023-03-21T19:22:15.542Z,4.40
2023-03-21T19:24:50.235Z,3.43
2023-03-21T19:27:25.280Z,3.97
2023-03-21T19:30:13.837Z,3.93
2023-03-21T19:32:51.092Z,3.97
2023-03-21T19:35:25.262Z,4.90
2023-03-21T19:37:59.029Z,3.30
2023-03-21T19:40:33.396Z,3.80
2023-03-21T19:43:31.180Z,3.90
2023-03-21T19:46:04.706Z,3.07
2023-03-21T19:48:46.986Z,4.30
2023-03-21T19:51:28.372Z,3.70
2023-03-21T19:54:07.557Z,5.77
2023-03-21T19:56:47.009Z,3.60
2023-03-21T19:59:21.196Z,3.97
2023-03-21T20:02:08.903Z,3.70
2023-03-21T20:04:52.697Z,4.47
2023-03-21T20:07:28.245Z,4.20
2023-03-21T20:10:02.404Z,4.40
2023-03-21T20:12:36.289Z,3.40
2023-03-21T20:15:19.242Z,3.73
2023-03-21T20:17:54.536Z,3.20
2023-03-21T20:20:30.016Z,4.50
2023-03-21T20:23:08.419Z,3.87
2023-03-21T20:25:45.112Z,4.73
2023-03-21T20:28:28.662Z,4.00
2023-03-21T20:31:03.211Z,3.53
2023-03-21T20:33:37.281Z,2.77
2023-03-21T20:36:37.998Z,3.70
2023-03-21T20:39:07.945Z,3.67
2023-03-21T20:41:42.149Z,3.23
2023-03-21T20:44:48.084Z,4.93
2023-03-21T20:47:12.761Z,4.27
2023-03-21T20:49:46.529Z,4.73
2023-03-21T20:55:21.463Z,3.57
2023-03-21T20:57:55.845Z,2.93
2023-03-21T21:00:29.546Z,4.57
2023-03-21T21:03:04.230Z,3.57
2023-03-21T21:05:38.892Z,3.03
2023-03-21T21:08:19.046Z,2.70
2023-03-21T21:11:27.679Z,3.63
2023-03-21T21:13:47.037Z,5.03
2023-03-21T21:16:23.816Z,4.53
2023-03-21T21:18:57.682Z,3.17
2023-03-21T21:21:32.021Z,4.03
2023-03-21T21:24:08.760Z,4.50
2023-03-21T21:26:46.562Z,6.97
2023-03-21T21:29:20.110Z,3.70
2023-03-21T21:31:54.773Z,4.80
2023-03-21T21:34:28.602Z,3.97
2023-03-21T21:37:02.483Z,5.20
2023-03-21T21:39:38.613Z,3.67
2023-03-21T21:42:12.299Z,4.73
2023-03-21T21:44:47.504Z,3.63
2023-03-21T21:47:22.448Z,4.67
2023-03-21T21:49:56.584Z,3.80
2023-03-21T21:52:30.443Z,3.27
2023-03-21T21:55:06.594Z,5.10
2023-03-21T21:57:40.090Z,4.57
2023-03-21T22:00:19.401Z,3.80
2023-03-21T22:02:53.196Z,3.53
2023-03-21T22:05:28.188Z,4.53
2023-03-21T22:08:01.990Z,3.53
2023-03-21T22:10:38.232Z,3.20
2023-03-21T22:13:16.442Z,5.23
2023-03-21T22:15:50.205Z,4.50
2023-03-21T22:18:24.533Z,3.70
2023-03-21T22:20:58.241Z,4.07
2023-03-21T22:23:32.267Z,3.37
2023-03-21T22:26:08.056Z,4.23
2023-03-21T22:28:43.314Z,3.07
2023-03-21T22:31:18.469Z,6.23
2023-03-21T22:33:52.047Z,4.70
2023-03-21T22:36:26.343Z,3.10
2023-03-21T22:39:00.798Z,3.50
2023-03-21T22:41:38.360Z,3.17
2023-03-21T22:44:12.008Z,4.67
2023-03-21T22:46:45.774Z,6.03
2023-03-21T22:49:20.290Z,4.27
2023-03-21T22:51:54.462Z,5.07
2023-03-21T22:54:28.086Z,5.30
2023-03-21T22:57:03.445Z,4.23
2023-03-21T22:59:37.236Z,4.07
2023-03-21T23:02:11.297Z,4.00
2023-03-21T23:04:45.250Z,4.10
2023-03-21T23:07:18.907Z,5.00
2023-03-21T23:09:52.954Z,6.40
2023-03-21T23:12:27.937Z,4.37
2023-03-21T23:15:02.476Z,4.30
2023-03-21T23:17:36.256Z,4.53
2023-03-21T23:20:10.947Z,4.10
2023-03-21T23:22:44.711Z,4.00
2023-03-21T23:25:20.540Z,5.20
2023-03-21T23:27:56.490Z,3.57
2023-03-21T23:30:29.911Z,5.23
2023-03-21T23:33:03.807Z,4.73
2023-03-21T23:35:38.441Z,4.43
2023-03-21T23:38:12.117Z,4.70
2023-03-21T23:40:46.248Z,3.20
2023-03-21T23:43:22.102Z,3.80
2023-03-21T23:45:59.702Z,4.80
2023-03-21T23:48:34.182Z,4.40
2023-03-21T23:51:09.600Z,4.43
2023-03-21T23:53:44.335Z,4.47
2023-03-21T23:56:23.556Z,4.27
2023-03-21T23:58:59.913Z,3.97
